createdAt,value
2019-03-30T00:00:40.788Z,44.00
2019-03-30T00:06:43.525Z,44.00
2019-03-30T00:12:46.265Z,44.00
2019-03-30T00:18:49.254Z,43.80
2019-03-30T00:24:52.275Z,43.70
2019-03-30T00:30:55.022Z,43.60
2019-03-30T00:36:58.064Z,43.60
2019-03-30T00:43:00.801Z,43.50
2019-03-30T00:49:22.968Z,43.60
2019-03-30T00:55:25.796Z,43.60
2019-03-30T01:01:28.883Z,43.60
2019-03-30T01:07:31.609Z,43.60
2019-03-30T01:13:34.332Z,43.60
2019-03-30T01:19:37.132Z,43.40
2019-03-30T01:25:39.948Z,43.70
2019-03-30T01:31:42.679Z,43.60
2019-03-30T01:37:46.292Z,43.70
2019-03-30T01:43:49.020Z,43.60
2019-03-30T01:49:51.749Z,44.00
2019-03-30T01:55:54.576Z,43.50
2019-03-30T02:01:57.308Z,44.00
2019-03-30T02:08:00.039Z,43.90
2019-03-30T02:14:02.762Z,44.00
2019-03-30T02:20:06.631Z,44.00
2019-03-30T02:26:09.365Z,44.00
2019-03-30T02:32:12.097Z,44.10
2019-03-30T02:38:14.822Z,44.00
2019-03-30T02:44:17.561Z,43.90
2019-03-30T02:50:20.285Z,43.90
2019-03-30T02:56:23.017Z,44.10
2019-03-30T03:02:25.750Z,44.00
2019-03-30T03:08:28.511Z,43.90
2019-03-30T03:14:31.283Z,43.90
2019-03-30T03:20:34.035Z,43.90
2019-03-30T03:26:36.769Z,43.90
2019-03-30T03:32:39.514Z,43.90
2019-03-30T03:38:42.300Z,43.80
2019-03-30T03:44:45.170Z,43.90
2019-03-30T03:51:24.525Z,43.90
2019-03-30T03:57:12.328Z,43.90
2019-03-30T04:03:16.346Z,43.90
2019-03-30T04:09:19.855Z,43.80
2019-03-30T04:15:23.649Z,43.90
2019-03-30T04:21:42.815Z,43.70
2019-03-30T04:27:31.177Z,43.40
2019-03-30T04:33:33.978Z,43.30
2019-03-30T04:39:36.867Z,43.30
2019-03-30T04:45:39.591Z,43.30
2019-03-30T04:51:56.520Z,43.90
2019-03-30T04:57:49.859Z,43.20
2019-03-30T05:03:51.509Z,43.20
2019-03-30T05:09:54.284Z,43.20
2019-03-30T05:15:57.074Z,43.20
2019-03-30T05:22:11.355Z,43.10
2019-03-30T05:28:04.315Z,43.10
2019-03-30T05:34:07.087Z,43.20
2019-03-30T05:40:10.520Z,43.10
2019-03-30T05:46:13.303Z,43.20
2019-03-30T05:52:26.373Z,43.30
2019-03-30T05:58:20.646Z,43.40
2019-03-30T06:04:23.379Z,43.30
2019-03-30T06:10:26.116Z,43.10
2019-03-30T06:16:28.873Z,43.70
2019-03-30T06:22:40.295Z,43.60
2019-03-30T06:28:36.119Z,43.80
2019-03-30T06:34:38.857Z,43.80
2019-03-30T06:40:41.594Z,44.00
2019-03-30T06:46:44.341Z,44.00
2019-03-30T06:52:57.506Z,44.20
2019-03-30T06:58:51.551Z,44.30
2019-03-30T07:04:54.313Z,44.40
2019-03-30T07:10:57.068Z,44.60
2019-03-30T07:17:01.886Z,44.80
2019-03-30T07:23:11.622Z,45.00
2019-03-30T07:29:09.302Z,45.20
2019-03-30T07:35:12.037Z,45.60
2019-03-30T07:41:14.788Z,45.70
2019-03-30T07:47:17.519Z,46.00
2019-03-30T07:53:26.706Z,46.80
2019-03-30T07:59:24.707Z,47.90
2019-03-30T08:05:27.449Z,47.60
2019-03-30T08:11:30.256Z,47.60
2019-03-30T08:17:33.088Z,47.80
2019-03-30T08:23:40.458Z,47.90
2019-03-30T08:29:40.287Z,48.20
2019-03-30T08:35:43.041Z,48.40
2019-03-30T08:41:45.809Z,48.50
2019-03-30T08:47:48.547Z,48.80
2019-03-30T08:53:54.770Z,48.80
2019-03-30T08:59:55.813Z,49.10
2019-03-30T09:05:58.551Z,49.20
2019-03-30T09:12:01.302Z,49.50
2019-03-30T09:18:04.228Z,49.70
2019-03-30T09:24:10.016Z,50.70
2019-03-30T09:30:11.617Z,50.10
2019-03-30T09:36:14.351Z,50.20
2019-03-30T09:42:17.084Z,50.60
2019-03-30T09:48:19.831Z,50.80
2019-03-30T09:54:23.834Z,51.00
2019-03-30T10:00:26.904Z,52.00
2019-03-30T10:06:34.677Z,51.50
2019-03-30T10:12:35.674Z,51.70
2019-03-30T10:18:38.406Z,51.80
2019-03-30T10:24:41.176Z,52.00
2019-03-30T10:30:43.933Z,52.10
2019-03-30T10:36:46.704Z,52.30
2019-03-30T10:42:49.457Z,52.00
2019-03-30T10:48:52.560Z,52.50
2019-03-30T10:54:55.423Z,52.80
2019-03-30T11:00:58.601Z,52.90
2019-03-30T11:07:01.446Z,52.90
2019-03-30T11:13:04.604Z,52.80
2019-03-30T11:19:07.650Z,52.70
2019-03-30T11:25:10.489Z,52.60
2019-03-30T11:31:13.300Z,52.60
2019-03-30T11:37:16.077Z,52.60
2019-03-30T11:43:18.839Z,52.60
2019-03-30T11:49:21.685Z,52.90
2019-03-30T11:55:24.415Z,53.20
2019-03-30T12:01:27.456Z,53.50
2019-03-30T12:07:30.202Z,53.50
2019-03-30T12:13:32.952Z,54.10
2019-03-30T12:19:35.719Z,54.60
2019-03-30T12:25:38.456Z,55.20
2019-03-30T12:31:41.225Z,55.70
2019-03-30T12:37:43.972Z,56.60
2019-03-30T12:43:47.029Z,57.60
2019-03-30T12:49:49.760Z,58.40
2019-03-30T12:55:52.842Z,58.50
2019-03-30T13:01:55.583Z,58.60
2019-03-30T13:07:58.336Z,58.90
2019-03-30T13:14:01.080Z,59.20
2019-03-30T13:20:05.185Z,59.30
2019-03-30T13:26:08.013Z,59.40
2019-03-30T13:32:10.785Z,58.30
2019-03-30T13:38:13.553Z,57.60
2019-03-30T13:44:16.279Z,56.90
2019-03-30T13:50:19.010Z,56.50
2019-03-30T13:56:21.745Z,56.00
2019-03-30T14:02:24.476Z,55.50
2019-03-30T14:08:27.200Z,55.30
2019-03-30T14:14:29.964Z,55.30
2019-03-30T14:20:32.696Z,55.30
2019-03-30T14:26:35.741Z,55.10
2019-03-30T14:32:38.468Z,55.00
2019-03-30T14:38:41.196Z,54.80
2019-03-30T14:44:43.931Z,54.70
2019-03-30T14:50:46.957Z,55.20
2019-03-30T14:56:49.696Z,54.50
2019-03-30T15:02:52.432Z,54.50
2019-03-30T15:08:55.177Z,54.40
2019-03-30T15:15:17.341Z,54.40
2019-03-30T15:21:20.080Z,54.20
2019-03-30T15:27:23.384Z,54.20
2019-03-30T15:33:26.116Z,54.20
2019-03-30T15:39:29.137Z,54.20
2019-03-30T15:45:31.922Z,54.10
2019-03-30T15:51:37.581Z,54.20
2019-03-30T15:57:39.464Z,54.10
2019-03-30T16:03:42.191Z,54.10
2019-03-30T16:09:44.928Z,54.10
2019-03-30T16:15:47.832Z,54.00
2019-03-30T16:21:50.609Z,53.90
2019-03-30T16:27:53.383Z,54.20
2019-03-30T16:33:56.221Z,54.20
2019-03-30T16:39:58.962Z,54.10
2019-03-30T16:46:01.728Z,54.10
2019-03-30T16:52:04.483Z,54.10
2019-03-30T16:58:07.301Z,54.10
2019-03-30T17:04:10.044Z,54.00
2019-03-30T17:10:13.080Z,53.90
2019-03-30T17:16:16.098Z,54.00
2019-03-30T17:22:18.843Z,53.90
2019-03-30T17:28:21.600Z,53.80
2019-03-30T17:34:24.380Z,53.80
2019-03-30T17:40:27.113Z,53.80
2019-03-30T17:46:29.873Z,53.70
2019-03-30T17:52:32.612Z,53.60
2019-03-30T17:58:35.351Z,53.70
2019-03-30T18:04:39.078Z,53.50
2019-03-30T18:10:41.953Z,53.40
2019-03-30T18:16:44.685Z,53.40
2019-03-30T18:22:47.419Z,53.20
2019-03-30T18:28:50.152Z,53.30
2019-03-30T18:34:52.885Z,53.40
2019-03-30T18:40:55.631Z,53.40
2019-03-30T18:46:58.441Z,50.40
2019-03-30T18:53:01.504Z,48.40
2019-03-30T18:59:04.293Z,48.00
2019-03-30T19:05:07.057Z,47.80
2019-03-30T19:11:10.131Z,47.00
2019-03-30T19:17:13.040Z,46.60
2019-03-30T19:23:15.794Z,46.90
2019-03-30T19:29:18.557Z,48.30
2019-03-30T19:35:21.483Z,48.70
2019-03-30T19:41:24.228Z,48.80
2019-03-30T19:47:26.972Z,49.10
2019-03-30T19:53:29.992Z,49.30
2019-03-30T19:59:33.101Z,49.20
2019-03-30T20:05:35.840Z,49.30
2019-03-30T20:11:40.138Z,49.40
2019-03-30T20:17:42.908Z,49.40
2019-03-30T20:23:45.742Z,49.50
2019-03-30T20:29:48.487Z,49.40
2019-03-30T20:35:51.224Z,50.20
2019-03-30T20:41:53.967Z,49.40
2019-03-30T20:47:56.689Z,49.40
2019-03-30T20:53:59.467Z,49.40
2019-03-30T21:00:02.893Z,49.50
2019-03-30T21:06:06.193Z,49.60
2019-03-30T21:12:08.926Z,49.50
2019-03-30T21:18:11.668Z,49.70
2019-03-30T21:24:14.426Z,49.70
2019-03-30T21:30:17.191Z,49.80
2019-03-30T21:36:19.932Z,49.90
2019-03-30T21:42:22.679Z,49.80
2019-03-30T21:48:25.425Z,49.80
2019-03-30T21:54:28.627Z,49.70
2019-03-30T22:00:38.885Z,49.70
2019-03-30T22:06:41.672Z,49.70
2019-03-30T22:12:44.413Z,49.60
2019-03-30T22:18:47.174Z,49.50
2019-03-30T22:24:49.926Z,49.50
2019-03-30T22:30:52.708Z,49.40
2019-03-30T22:36:55.440Z,49.40
2019-03-30T22:42:58.214Z,49.40
2019-03-30T22:49:01.033Z,49.50
2019-03-30T22:55:05.345Z,49.60
2019-03-30T23:01:08.076Z,49.70
2019-03-30T23:07:11.153Z,49.70
2019-03-30T23:13:14.280Z,49.70
2019-03-30T23:19:17.000Z,49.70
2019-03-30T23:25:19.745Z,49.70
2019-03-30T23:31:22.768Z,49.70
2019-03-30T23:37:25.506Z,49.60
2019-03-30T23:43:28.251Z,49.60
2019-03-30T23:49:31.043Z,49.70
2019-03-30T23:55:33.784Z,49.70
